EZY26AK DTNH-LFST
Flight info
| Callsign | EZY26AK |
|---|---|
| Flight time | N/A |
| Altitude | 36000 |
| Route | VAXAL UA411 TUC UM733 OSMAR DCT LEDRO DCT KOLUS DCT MADKA DCT TORTU DCT ANAKI DCT INVOP DCT PUNSA DCT HOC DCT DEVDI DCT BAMEV DCT LUPEN |
| Aircraft | A320/M-SDE3FGHIRWY/LB1 |
Departure
| Time | 2026-04-26 16:24 |
|---|---|
| Airport | Enfidha - Hammamet International Airport (DTNH) |
Arrival
| Time | N/A |
|---|---|
| Airport | Strasbourg Airport (LFST) |
| Time | Latitude | Longitude | Altitude | Speed | Heading |
|---|---|---|---|---|---|
| 2026-04-26 16:00 | 36.08133 | 10.43905 | 16 ft | 0 kts | 360° |
| 2026-04-26 16:17 | 36.08110 | 10.43905 | 16 ft | 4 kts | 357° |
| 2026-04-26 16:17 | 36.08083 | 10.43908 | 17 ft | 4 kts | 350° |
| 2026-04-26 16:17 | 36.08058 | 10.43917 | 23 ft | 4 kts | 327° |
| 2026-04-26 16:17 | 36.08044 | 10.43935 | 25 ft | 2 kts | 271° |
| 2026-04-26 16:18 | 36.08045 | 10.43936 | 26 ft | 0 kts | 270° |
| 2026-04-26 16:19 | 36.08045 | 10.43932 | 26 ft | 6 kts | 271° |
| 2026-04-26 16:20 | 36.08048 | 10.43692 | 24 ft | 24 kts | 271° |
| 2026-04-26 16:20 | 36.08047 | 10.43308 | 22 ft | 21 kts | 270° |
| 2026-04-26 16:20 | 36.08047 | 10.43086 | 24 ft | 29 kts | 270° |
| 2026-04-26 16:21 | 36.08049 | 10.42845 | 24 ft | 24 kts | 270° |
| 2026-04-26 16:21 | 36.08017 | 10.42707 | 27 ft | 14 kts | 206° |
| 2026-04-26 16:21 | 36.07909 | 10.42698 | 30 ft | 15 kts | 180° |
| 2026-04-26 16:21 | 36.07807 | 10.42697 | 31 ft | 13 kts | 180° |
| 2026-04-26 16:22 | 36.07752 | 10.42616 | 32 ft | 18 kts | 265° |
| 2026-04-26 16:22 | 36.07754 | 10.42470 | 34 ft | 17 kts | 271° |
| 2026-04-26 16:22 | 36.07756 | 10.42328 | 33 ft | 16 kts | 270° |
| 2026-04-26 16:22 | 36.07703 | 10.42216 | 32 ft | 16 kts | 192° |
| 2026-04-26 16:23 | 36.07601 | 10.42213 | 31 ft | 14 kts | 159° |
| 2026-04-26 16:23 | 36.07581 | 10.42350 | 29 ft | 30 kts | 92° |
| 2026-04-26 16:23 | 36.07580 | 10.42910 | 29 ft | 97 kts | 90° |
| 2026-04-26 16:23 | 36.07576 | 10.43974 | 32 ft | 148 kts | 90° |
| 2026-04-26 16:24 | 36.07564 | 10.45293 | 579 ft | 151 kts | 91° |
| 2026-04-26 16:24 | 36.07845 | 10.46555 | 1237 ft | 158 kts | 60° |
| 2026-04-26 16:24 | 36.08639 | 10.47513 | 1801 ft | 164 kts | 29° |
| 2026-04-26 16:24 | 36.09753 | 10.47816 | 2358 ft | 168 kts | 353° |
| 2026-04-26 16:25 | 36.10875 | 10.47413 | 2859 ft | 174 kts | 337° |
| 2026-04-26 16:25 | 36.12083 | 10.46845 | 3126 ft | 196 kts | 339° |
| 2026-04-26 16:25 | 36.13501 | 10.46472 | 3339 ft | 222 kts | 349° |
| 2026-04-26 16:25 | 36.15111 | 10.46155 | 3677 ft | 246 kts | 349° |